Nova — 9HHC8 — position and weather

sailwx.info

Track history (hours):
 
Tides and Currents Weather Stations Pressure Air Temp Water Temp Dewpoint Dewpoint Depression Visibility Wind Speed Wind Dir Waves Ship Positions

Nova

Last reported at 2017-Oct-21 14:00 UTC. Time now 2017-Oct-22 04:57 UTC.
Position N 45°30' E 036°47'.

Length 99 m; draft 3.3 m.

Type: Ship. MMSI: 215976000.

Date/timePositionNaut miles runAvg speedWind from/ knotsBaromVisibWave heightAir tempDewpointWater temp
2017-Oct-21 14:00N 45°30' E 036°47'4 8.1
2017-Oct-21 13:30N 45°27' E 036°44'4 8.3
2017-Oct-21 13:01N 45°24' E 036°41'4 7.2
2017-Oct-21 12:31N 45°21' E 036°38'4 8.7
2017-Oct-21 12:01N 45°19' E 036°32'4 7.2
2017-Oct-21 11:31N 45°16' E 036°29'3 6.3
2017-Oct-21 11:00N 45°13' E 036°29'2 3.4
2017-Oct-21 10:27N 45°12' E 036°31'0 0.0
2017-Oct-21 10:00N 45°12' E 036°31'0 0.0
2017-Oct-21 09:27N 45°12' E 036°31'0 0.0
2017-Oct-21 08:54N 45°12' E 036°31'0 0.1
2017-Oct-21 08:30N 45°12' E 036°31'0 0.0
2017-Oct-21 07:51N 45°12' E 036°31'0 0.0
2017-Oct-21 07:27N 45°12' E 036°31'0 0.0
2017-Oct-21 06:12N 45°12' E 036°31'0 0.0
2017-Oct-21 05:45N 45°12' E 036°31'0 0.1
2017-Oct-21 05:30N 45°12' E 036°31'0 0.0
2017-Oct-21 05:00N 45°12' E 036°31'78 8.0
2017-Oct-20 19:17N 43°54' E 036°29'3 8.8
2017-Oct-20 19:00N 43°51' E 036°29'7 8.7
2017-Oct-20 18:14N 43°45' E 036°29'2 8.7
2017-Oct-20 18:00N 43°42' E 036°29'4 8.8
2017-Oct-20 17:30N 43°38' E 036°28'4 8.9
2017-Oct-20 17:00N 43°34' E 036°28'5 9.1
2017-Oct-20 16:30N 43°29' E 036°28'4 8.9
2017-Oct-20 16:00N 43°25' E 036°28'4 8.9
2017-Oct-20 15:30N 43°20' E 036°27'13 8.8
2017-Oct-20 14:03N 43°07' E 036°27'5 8.8
2017-Oct-20 13:27N 43°02' E 036°27'14 8.9
2017-Oct-20 11:51N 42°48' E 036°26'3 8.9
2017-Oct-20 11:30N 42°45' E 036°26'  
2017-Oct-14 19:25N 45°13' E 036°28'3 7.3
2017-Oct-14 19:01N 45°16' E 036°28'3 6.3
2017-Oct-14 18:31N 45°18' E 036°30'4 7.1
2017-Oct-14 18:01N 45°20' E 036°35'3 6.9
2017-Oct-14 17:31N 45°21' E 036°39'4 7.2
2017-Oct-14 17:00N 45°25' E 036°41'4 6.9
2017-Oct-14 16:28N 45°28' E 036°41'3 7.1
2017-Oct-14 16:00N 45°31' E 036°39'1 0.5
2017-Oct-14 13:02N 45°32' E 036°38'0 0.0
2017-Oct-14 12:38N 45°32' E 036°38'0 0.1
2017-Oct-14 12:29N 45°32' E 036°38'0 0.0
2017-Oct-14 04:59N 45°32' E 036°38'0 0.0
2017-Oct-14 04:17N 45°32' E 036°38'0 0.7
2017-Oct-14 03:50N 45°33' E 036°38'4 5.6
2017-Oct-14 03:10N 45°35' E 036°43'1 5.6
2017-Oct-14 03:00N 45°35' E 036°44'  
Track history (hours):
 
Tides and Currents Weather Stations Pressure Air Temp Water Temp Dewpoint Dewpoint Depression Visibility Wind Speed Wind Dir Waves Ship Positions

Nova

Last reported at 2017-Oct-21 14:00 UTC. Time now 2017-Oct-22 04:57 UTC.
Position N 45°30' E 036°47'.

Length 99 m; draft 3.3 m.

Type: Ship. MMSI: 215976000.

Date/timePositionNaut miles runAvg speedWind from/ knotsBaromVisibWave heightAir tempDewpointWater temp
2017-Oct-21 14:00N 45°30' E 036°47'4 8.1
2017-Oct-21 13:30N 45°27' E 036°44'4 8.3
2017-Oct-21 13:01N 45°24' E 036°41'4 7.2
2017-Oct-21 12:31N 45°21' E 036°38'4 8.7
2017-Oct-21 12:01N 45°19' E 036°32'4 7.2
2017-Oct-21 11:31N 45°16' E 036°29'3 6.3
2017-Oct-21 11:00N 45°13' E 036°29'2 3.4
2017-Oct-21 10:27N 45°12' E 036°31'0 0.0
2017-Oct-21 10:00N 45°12' E 036°31'0 0.0
2017-Oct-21 09:27N 45°12' E 036°31'0 0.0
2017-Oct-21 08:54N 45°12' E 036°31'0 0.1
2017-Oct-21 08:30N 45°12' E 036°31'0 0.0
2017-Oct-21 07:51N 45°12' E 036°31'0 0.0
2017-Oct-21 07:27N 45°12' E 036°31'0 0.0
2017-Oct-21 06:12N 45°12' E 036°31'0 0.0
2017-Oct-21 05:45N 45°12' E 036°31'0 0.1
2017-Oct-21 05:30N 45°12' E 036°31'0 0.0
2017-Oct-21 05:00N 45°12' E 036°31'78 8.0
2017-Oct-20 19:17N 43°54' E 036°29'3 8.8
2017-Oct-20 19:00N 43°51' E 036°29'7 8.7
2017-Oct-20 18:14N 43°45' E 036°29'2 8.7
2017-Oct-20 18:00N 43°42' E 036°29'4 8.8
2017-Oct-20 17:30N 43°38' E 036°28'4 8.9
2017-Oct-20 17:00N 43°34' E 036°28'5 9.1
2017-Oct-20 16:30N 43°29' E 036°28'4 8.9
2017-Oct-20 16:00N 43°25' E 036°28'4 8.9
2017-Oct-20 15:30N 43°20' E 036°27'13 8.8
2017-Oct-20 14:03N 43°07' E 036°27'5 8.8
2017-Oct-20 13:27N 43°02' E 036°27'14 8.9
2017-Oct-20 11:51N 42°48' E 036°26'3 8.9
2017-Oct-20 11:30N 42°45' E 036°26'  
2017-Oct-14 19:25N 45°13' E 036°28'3 7.3
2017-Oct-14 19:01N 45°16' E 036°28'3 6.3
2017-Oct-14 18:31N 45°18' E 036°30'4 7.1
2017-Oct-14 18:01N 45°20' E 036°35'3 6.9
2017-Oct-14 17:31N 45°21' E 036°39'4 7.2
2017-Oct-14 17:00N 45°25' E 036°41'4 6.9
2017-Oct-14 16:28N 45°28' E 036°41'3 7.1
2017-Oct-14 16:00N 45°31' E 036°39'1 0.5
2017-Oct-14 13:02N 45°32' E 036°38'0 0.0
2017-Oct-14 12:38N 45°32' E 036°38'0 0.1
2017-Oct-14 12:29N 45°32' E 036°38'0 0.0
2017-Oct-14 04:59N 45°32' E 036°38'0 0.0
2017-Oct-14 04:17N 45°32' E 036°38'0 0.7
2017-Oct-14 03:50N 45°33' E 036°38'4 5.6
2017-Oct-14 03:10N 45°35' E 036°43'1 5.6
2017-Oct-14 03:00N 45°35' E 036°44'  

Dump ship's entire track history